sensor_id;sensor_type;location;lat;lon;timestamp;temperature;humidity
28177;DHT22;15461;41.652;9.378;2023-07-08T00:00:52;23.90;99.90
28177;DHT22;15461;41.652;9.378;2023-07-08T00:03:18;23.90;99.90
28177;DHT22;15461;41.652;9.378;2023-07-08T00:05:46;23.90;99.90
28177;DHT22;15461;41.652;9.378;2023-07-08T00:08:17;23.90;99.90
28177;DHT22;15461;41.652;9.378;2023-07-08T00:10:43;23.90;99.90
28177;DHT22;15461;41.652;9.378;2023-07-08T00:13:10;23.70;99.90
28177;DHT22;15461;41.652;9.378;2023-07-08T00:15:37;23.70;99.90
28177;DHT22;15461;41.652;9.378;2023-07-08T00:18:19;23.60;99.90
28177;DHT22;15461;41.652;9.378;2023-07-08T00:20:47;23.30;99.90
28177;DHT22;15461;41.652;9.378;2023-07-08T00:23:13;23.10;99.90
28177;DHT22;15461;41.652;9.378;2023-07-08T00:25:40;23.00;99.90
28177;DHT22;15461;41.652;9.378;2023-07-08T00:30:35;23.00;99.90
28177;DHT22;15461;41.652;9.378;2023-07-08T00:33:01;22.90;99.90
28177;DHT22;15461;41.652;9.378;2023-07-08T00:35:51;22.80;99.90
28177;DHT22;15461;41.652;9.378;2023-07-08T00:38:27;22.80;99.90
28177;DHT22;15461;41.652;9.378;2023-07-08T00:43:53;22.70;99.90
28177;DHT22;15461;41.652;9.378;2023-07-08T00:52:36;22.50;99.90
28177;DHT22;15461;41.652;9.378;2023-07-08T00:55:05;22.40;99.90
28177;DHT22;15461;41.652;9.378;2023-07-08T00:57:36;22.50;99.90
28177;DHT22;15461;41.652;9.378;2023-07-08T01:00:06;22.40;99.90
28177;DHT22;15461;41.652;9.378;2023-07-08T01:02:40;22.20;99.90
28177;DHT22;15461;41.652;9.378;2023-07-08T01:05:19;22.00;99.90
28177;DHT22;15461;41.652;9.378;2023-07-08T01:07:51;22.00;99.90
28177;DHT22;15461;41.652;9.378;2023-07-08T01:10:24;22.00;99.90
28177;DHT22;15461;41.652;9.378;2023-07-08T01:12:56;22.00;99.90
28177;DHT22;15461;41.652;9.378;2023-07-08T01:15:29;22.00;99.90
28177;DHT22;15461;41.652;9.378;2023-07-08T01:17:57;22.10;99.90
28177;DHT22;15461;41.652;9.378;2023-07-08T01:20:23;22.10;99.90
28177;DHT22;15461;41.652;9.378;2023-07-08T01:22:48;22.20;99.90
28177;DHT22;15461;41.652;9.378;2023-07-08T01:25:14;22.30;99.90
28177;DHT22;15461;41.652;9.378;2023-07-08T01:27:46;22.40;99.90
28177;DHT22;15461;41.652;9.378;2023-07-08T01:30:13;22.40;99.90
28177;DHT22;15461;41.652;9.378;2023-07-08T01:32:45;22.50;99.90
28177;DHT22;15461;41.652;9.378;2023-07-08T01:35:12;22.50;99.90
28177;DHT22;15461;41.652;9.378;2023-07-08T01:37:46;22.50;99.90
28177;DHT22;15461;41.652;9.378;2023-07-08T01:40:53;22.40;99.90
28177;DHT22;15461;41.652;9.378;2023-07-08T01:43:19;22.50;99.90
28177;DHT22;15461;41.652;9.378;2023-07-08T01:45:46;22.50;99.90
28177;DHT22;15461;41.652;9.378;2023-07-08T01:48:15;22.50;99.90
28177;DHT22;15461;41.652;9.378;2023-07-08T01:51:17;22.40;99.90
28177;DHT22;15461;41.652;9.378;2023-07-08T01:53:39;22.40;99.90
28177;DHT22;15461;41.652;9.378;2023-07-08T01:56:06;22.40;99.90
28177;DHT22;15461;41.652;9.378;2023-07-08T01:58:33;22.40;99.90
28177;DHT22;15461;41.652;9.378;2023-07-08T02:00:59;22.40;99.90
28177;DHT22;15461;41.652;9.378;2023-07-08T02:03:26;22.40;99.90
28177;DHT22;15461;41.652;9.378;2023-07-08T02:05:54;22.40;99.90
28177;DHT22;15461;41.652;9.378;2023-07-08T02:08:21;22.60;99.90
28177;DHT22;15461;41.652;9.378;2023-07-08T02:10:52;22.70;99.90
28177;DHT22;15461;41.652;9.378;2023-07-08T02:13:18;22.80;99.90
28177;DHT22;15461;41.652;9.378;2023-07-08T02:15:44;22.90;99.90
28177;DHT22;15461;41.652;9.378;2023-07-08T02:18:10;23.00;99.90
28177;DHT22;15461;41.652;9.378;2023-07-08T02:20:36;23.00;99.90
28177;DHT22;15461;41.652;9.378;2023-07-08T02:23:02;23.00;99.90
28177;DHT22;15461;41.652;9.378;2023-07-08T02:25:28;23.00;99.90
28177;DHT22;15461;41.652;9.378;2023-07-08T02:27:54;23.00;99.90
28177;DHT22;15461;41.652;9.378;2023-07-08T02:30:23;23.00;99.90
28177;DHT22;15461;41.652;9.378;2023-07-08T02:32:49;23.00;99.90
28177;DHT22;15461;41.652;9.378;2023-07-08T02:35:23;23.00;99.90
28177;DHT22;15461;41.652;9.378;2023-07-08T02:37:49;22.90;99.90
28177;DHT22;15461;41.652;9.378;2023-07-08T02:40:15;22.90;99.90
28177;DHT22;15461;41.652;9.378;2023-07-08T02:42:41;22.90;99.90
28177;DHT22;15461;41.652;9.378;2023-07-08T02:45:07;22.80;99.90
28177;DHT22;15461;41.652;9.378;2023-07-08T02:47:33;22.80;99.90
28177;DHT22;15461;41.652;9.378;2023-07-08T02:49:59;22.70;99.90
28177;DHT22;15461;41.652;9.378;2023-07-08T02:52:25;22.70;99.90
28177;DHT22;15461;41.652;9.378;2023-07-08T02:54:50;22.60;99.90
28177;DHT22;15461;41.652;9.378;2023-07-08T02:57:16;22.60;99.90
28177;DHT22;15461;41.652;9.378;2023-07-08T02:59:42;22.50;99.90
28177;DHT22;15461;41.652;9.378;2023-07-08T03:02:08;22.50;99.90
28177;DHT22;15461;41.652;9.378;2023-07-08T03:04:33;22.40;99.90
28177;DHT22;15461;41.652;9.378;2023-07-08T03:07:05;22.40;99.90
28177;DHT22;15461;41.652;9.378;2023-07-08T03:09:31;22.40;99.90
28177;DHT22;15461;41.652;9.378;2023-07-08T03:11:58;22.40;99.90
28177;DHT22;15461;41.652;9.378;2023-07-08T03:14:24;22.30;99.90
28177;DHT22;15461;41.652;9.378;2023-07-08T03:16:50;22.30;99.90
28177;DHT22;15461;41.652;9.378;2023-07-08T03:19:16;22.30;99.90
28177;DHT22;15461;41.652;9.378;2023-07-08T03:21:43;22.30;99.90
28177;DHT22;15461;41.652;9.378;2023-07-08T03:24:10;22.20;99.90
28177;DHT22;15461;41.652;9.378;2023-07-08T03:26:43;22.20;99.90
28177;DHT22;15461;41.652;9.378;2023-07-08T03:29:19;22.20;99.90
28177;DHT22;15461;41.652;9.378;2023-07-08T03:31:46;22.20;99.90
28177;DHT22;15461;41.652;9.378;2023-07-08T03:34:14;22.10;99.90
28177;DHT22;15461;41.652;9.378;2023-07-08T03:36:44;22.20;99.90
28177;DHT22;15461;41.652;9.378;2023-07-08T03:39:19;22.20;99.90
28177;DHT22;15461;41.652;9.378;2023-07-08T03:41:45;22.10;99.90
28177;DHT22;15461;41.652;9.378;2023-07-08T03:44:11;22.20;99.90
28177;DHT22;15461;41.652;9.378;2023-07-08T03:46:38;22.10;99.90
28177;DHT22;15461;41.652;9.378;2023-07-08T03:49:06;22.20;99.90
28177;DHT22;15461;41.652;9.378;2023-07-08T03:51:34;22.20;99.90
28177;DHT22;15461;41.652;9.378;2023-07-08T03:54:01;22.20;99.90
28177;DHT22;15461;41.652;9.378;2023-07-08T03:56:31;22.20;99.90
28177;DHT22;15461;41.652;9.378;2023-07-08T03:58:57;22.20;99.90
28177;DHT22;15461;41.652;9.378;2023-07-08T04:01:24;22.20;99.90
28177;DHT22;15461;41.652;9.378;2023-07-08T04:03:52;22.20;99.90
28177;DHT22;15461;41.652;9.378;2023-07-08T04:06:18;22.20;99.90
28177;DHT22;15461;41.652;9.378;2023-07-08T04:08:45;22.20;99.90
28177;DHT22;15461;41.652;9.378;2023-07-08T04:11:18;22.20;99.90
28177;DHT22;15461;41.652;9.378;2023-07-08T04:13:45;22.20;99.90
28177;DHT22;15461;41.652;9.378;2023-07-08T04:16:19;22.20;99.90
28177;DHT22;15461;41.652;9.378;2023-07-08T04:18:45;22.20;99.90
28177;DHT22;15461;41.652;9.378;2023-07-08T04:21:11;22.30;99.90
28177;DHT22;15461;41.652;9.378;2023-07-08T04:23:37;22.20;99.90
28177;DHT22;15461;41.652;9.378;2023-07-08T04:26:03;22.20;99.90
28177;DHT22;15461;41.652;9.378;2023-07-08T04:28:29;22.20;99.90
28177;DHT22;15461;41.652;9.378;2023-07-08T04:30:55;22.30;99.90
28177;DHT22;15461;41.652;9.378;2023-07-08T04:33:20;22.30;99.90
28177;DHT22;15461;41.652;9.378;2023-07-08T04:35:46;22.30;99.90
28177;DHT22;15461;41.652;9.378;2023-07-08T04:38:20;22.40;99.90
28177;DHT22;15461;41.652;9.378;2023-07-08T04:40:48;22.40;99.90
28177;DHT22;15461;41.652;9.378;2023-07-08T04:43:14;22.50;99.90
28177;DHT22;15461;41.652;9.378;2023-07-08T04:45:42;22.50;99.90
28177;DHT22;15461;41.652;9.378;2023-07-08T04:48:14;22.60;99.90
28177;DHT22;15461;41.652;9.378;2023-07-08T04:50:44;22.80;99.90
28177;DHT22;15461;41.652;9.378;2023-07-08T04:53:11;22.80;99.90
28177;DHT22;15461;41.652;9.378;2023-07-08T04:55:43;22.90;99.90
28177;DHT22;15461;41.652;9.378;2023-07-08T04:58:09;23.00;99.90
28177;DHT22;15461;41.652;9.378;2023-07-08T05:00:35;23.00;99.90
28177;DHT22;15461;41.652;9.378;2023-07-08T05:03:01;23.10;99.90
28177;DHT22;15461;41.652;9.378;2023-07-08T05:05:27;23.20;99.90
28177;DHT22;15461;41.652;9.378;2023-07-08T05:07:53;23.30;99.90
28177;DHT22;15461;41.652;9.378;2023-07-08T05:10:19;23.30;99.90
28177;DHT22;15461;41.652;9.378;2023-07-08T05:12:46;23.40;99.90
28177;DHT22;15461;41.652;9.378;2023-07-08T05:15:12;23.50;99.90
28177;DHT22;15461;41.652;9.378;2023-07-08T05:17:39;23.60;99.90
28177;DHT22;15461;41.652;9.378;2023-07-08T05:20:07;23.60;99.90
28177;DHT22;15461;41.652;9.378;2023-07-08T05:22:33;23.70;99.90
28177;DHT22;15461;41.652;9.378;2023-07-08T05:24:59;23.70;99.90
28177;DHT22;15461;41.652;9.378;2023-07-08T05:27:25;23.70;99.90
28177;DHT22;15461;41.652;9.378;2023-07-08T05:29:51;23.80;99.90
28177;DHT22;15461;41.652;9.378;2023-07-08T05:32:17;23.90;99.90
28177;DHT22;15461;41.652;9.378;2023-07-08T05:34:44;23.90;99.90
28177;DHT22;15461;41.652;9.378;2023-07-08T05:37:10;23.90;99.90
28177;DHT22;15461;41.652;9.378;2023-07-08T05:39:36;23.90;99.90
28177;DHT22;15461;41.652;9.378;2023-07-08T05:42:02;24.00;99.90
28177;DHT22;15461;41.652;9.378;2023-07-08T05:44:28;24.00;99.90
28177;DHT22;15461;41.652;9.378;2023-07-08T05:46:54;24.10;99.90
28177;DHT22;15461;41.652;9.378;2023-07-08T05:49:20;24.10;99.90
28177;DHT22;15461;41.652;9.378;2023-07-08T05:51:46;24.20;99.90
28177;DHT22;15461;41.652;9.378;2023-07-08T05:54:12;24.20;99.90
28177;DHT22;15461;41.652;9.378;2023-07-08T05:56:38;24.30;99.90
28177;DHT22;15461;41.652;9.378;2023-07-08T05:59:04;24.40;99.90
28177;DHT22;15461;41.652;9.378;2023-07-08T06:01:30;24.40;99.90
28177;DHT22;15461;41.652;9.378;2023-07-08T06:03:56;24.50;99.90
28177;DHT22;15461;41.652;9.378;2023-07-08T06:06:25;24.60;99.90
28177;DHT22;15461;41.652;9.378;2023-07-08T06:08:52;24.70;99.90
28177;DHT22;15461;41.652;9.378;2023-07-08T06:11:18;24.80;99.90
28177;DHT22;15461;41.652;9.378;2023-07-08T06:13:44;24.90;99.90
28177;DHT22;15461;41.652;9.378;2023-07-08T06:16:10;25.00;99.90
28177;DHT22;15461;41.652;9.378;2023-07-08T06:18:35;25.10;99.90
28177;DHT22;15461;41.652;9.378;2023-07-08T06:21:02;25.20;99.90
28177;DHT22;15461;41.652;9.378;2023-07-08T06:23:28;25.30;99.90
28177;DHT22;15461;41.652;9.378;2023-07-08T06:25:54;25.50;99.90
28177;DHT22;15461;41.652;9.378;2023-07-08T06:28:21;25.60;99.90
28177;DHT22;15461;41.652;9.378;2023-07-08T06:30:47;25.60;99.90
28177;DHT22;15461;41.652;9.378;2023-07-08T06:33:13;25.70;99.90
28177;DHT22;15461;41.652;9.378;2023-07-08T06:35:39;25.80;99.90
28177;DHT22;15461;41.652;9.378;2023-07-08T06:38:06;26.00;99.90
28177;DHT22;15461;41.652;9.378;2023-07-08T06:40:33;26.10;99.90
28177;DHT22;15461;41.652;9.378;2023-07-08T06:42:59;26.20;99.90
28177;DHT22;15461;41.652;9.378;2023-07-08T06:45:37;26.30;99.90
28177;DHT22;15461;41.652;9.378;2023-07-08T06:48:03;26.40;99.90
28177;DHT22;15461;41.652;9.378;2023-07-08T06:50:30;26.50;99.90
28177;DHT22;15461;41.652;9.378;2023-07-08T06:52:56;26.60;99.90
28177;DHT22;15461;41.652;9.378;2023-07-08T06:55:22;26.80;99.90
28177;DHT22;15461;41.652;9.378;2023-07-08T06:57:47;27.00;99.90
28177;DHT22;15461;41.652;9.378;2023-07-08T07:00:14;27.20;99.90
28177;DHT22;15461;41.652;9.378;2023-07-08T07:02:40;27.30;99.90
28177;DHT22;15461;41.652;9.378;2023-07-08T07:05:06;27.30;99.90
28177;DHT22;15461;41.652;9.378;2023-07-08T07:07:32;27.40;99.90
28177;DHT22;15461;41.652;9.378;2023-07-08T07:09:59;27.40;99.90
28177;DHT22;15461;41.652;9.378;2023-07-08T07:12:26;27.50;99.90
28177;DHT22;15461;41.652;9.378;2023-07-08T07:14:52;27.60;99.90
28177;DHT22;15461;41.652;9.378;2023-07-08T07:17:22;27.70;99.90
28177;DHT22;15461;41.652;9.378;2023-07-08T07:19:48;27.80;99.90
28177;DHT22;15461;41.652;9.378;2023-07-08T07:22:15;27.90;99.90
28177;DHT22;15461;41.652;9.378;2023-07-08T07:24:41;28.00;99.90
28177;DHT22;15461;41.652;9.378;2023-07-08T07:27:08;28.10;99.90
28177;DHT22;15461;41.652;9.378;2023-07-08T07:29:45;28.10;99.90
28177;DHT22;15461;41.652;9.378;2023-07-08T07:32:12;28.10;99.90
28177;DHT22;15461;41.652;9.378;2023-07-08T07:34:39;28.20;99.90
28177;DHT22;15461;41.652;9.378;2023-07-08T07:37:12;28.30;99.90
28177;DHT22;15461;41.652;9.378;2023-07-08T07:39:39;28.20;99.90
28177;DHT22;15461;41.652;9.378;2023-07-08T07:42:05;28.30;99.90
28177;DHT22;15461;41.652;9.378;2023-07-08T07:44:31;28.40;99.90
28177;DHT22;15461;41.652;9.378;2023-07-08T07:49:46;28.50;99.90
28177;DHT22;15461;41.652;9.378;2023-07-08T07:52:12;28.60;99.90
28177;DHT22;15461;41.652;9.378;2023-07-08T07:54:38;28.60;99.90
28177;DHT22;15461;41.652;9.378;2023-07-08T07:57:05;28.70;99.90
28177;DHT22;15461;41.652;9.378;2023-07-08T07:59:31;28.80;99.90
28177;DHT22;15461;41.652;9.378;2023-07-08T08:01:57;28.70;99.90
28177;DHT22;15461;41.652;9.378;2023-07-08T08:04:23;28.70;99.90
28177;DHT22;15461;41.652;9.378;2023-07-08T08:06:49;28.70;99.90
28177;DHT22;15461;41.652;9.378;2023-07-08T08:09:14;28.80;99.90
28177;DHT22;15461;41.652;9.378;2023-07-08T08:11:40;28.90;99.90
28177;DHT22;15461;41.652;9.378;2023-07-08T08:14:06;29.00;99.90
28177;DHT22;15461;41.652;9.378;2023-07-08T08:16:32;29.10;99.90
28177;DHT22;15461;41.652;9.378;2023-07-08T08:18:57;29.20;99.90
28177;DHT22;15461;41.652;9.378;2023-07-08T08:21:23;29.20;99.90
28177;DHT22;15461;41.652;9.378;2023-07-08T08:23:49;29.30;99.90
28177;DHT22;15461;41.652;9.378;2023-07-08T08:26:15;29.40;99.90
28177;DHT22;15461;41.652;9.378;2023-07-08T08:28:41;29.30;99.90
28177;DHT22;15461;41.652;9.378;2023-07-08T08:31:06;29.50;99.90
28177;DHT22;15461;41.652;9.378;2023-07-08T08:33:32;29.60;99.90
28177;DHT22;15461;41.652;9.378;2023-07-08T08:35:58;29.70;99.90
28177;DHT22;15461;41.652;9.378;2023-07-08T08:38:24;29.90;99.90
28177;DHT22;15461;41.652;9.378;2023-07-08T08:40:50;30.00;99.90
28177;DHT22;15461;41.652;9.378;2023-07-08T08:43:22;29.90;99.90
28177;DHT22;15461;41.652;9.378;2023-07-08T08:48:25;29.90;99.90
28177;DHT22;15461;41.652;9.378;2023-07-08T08:50:58;30.00;99.90
28177;DHT22;15461;41.652;9.378;2023-07-08T08:53:26;30.10;99.90
28177;DHT22;15461;41.652;9.378;2023-07-08T08:56:00;30.20;99.90
28177;DHT22;15461;41.652;9.378;2023-07-08T08:58:44;30.10;99.90
28177;DHT22;15461;41.652;9.378;2023-07-08T09:01:15;30.10;99.90
28177;DHT22;15461;41.652;9.378;2023-07-08T09:06:32;30.30;99.90
28177;DHT22;15461;41.652;9.378;2023-07-08T09:09:24;30.40;99.90
28177;DHT22;15461;41.652;9.378;2023-07-08T09:12:10;30.40;99.90
28177;DHT22;15461;41.652;9.378;2023-07-08T09:14:37;30.40;99.90
28177;DHT22;15461;41.652;9.378;2023-07-08T09:17:30;30.20;99.90
28177;DHT22;15461;41.652;9.378;2023-07-08T09:20:19;30.20;99.90
28177;DHT22;15461;41.652;9.378;2023-07-08T09:28:13;30.20;99.90
28177;DHT22;15461;41.652;9.378;2023-07-08T09:30:39;30.10;99.90
28177;DHT22;15461;41.652;9.378;2023-07-08T09:33:07;30.20;99.90
28177;DHT22;15461;41.652;9.378;2023-07-08T09:35:46;30.20;99.90
28177;DHT22;15461;41.652;9.378;2023-07-08T09:38:18;30.30;99.90
28177;DHT22;15461;41.652;9.378;2023-07-08T09:40:51;30.50;99.90
28177;DHT22;15461;41.652;9.378;2023-07-08T09:45:50;30.50;99.90
28177;DHT22;15461;41.652;9.378;2023-07-08T09:48:29;30.50;99.90
28177;DHT22;15461;41.652;9.378;2023-07-08T09:50:57;30.50;99.90
28177;DHT22;15461;41.652;9.378;2023-07-08T09:53:23;30.60;99.90
28177;DHT22;15461;41.652;9.378;2023-07-08T09:55:50;30.70;99.90
28177;DHT22;15461;41.652;9.378;2023-07-08T09:58:36;30.70;99.90
28177;DHT22;15461;41.652;9.378;2023-07-08T10:01:28;30.80;99.90
28177;DHT22;15461;41.652;9.378;2023-07-08T10:04:01;30.80;99.90
28177;DHT22;15461;41.652;9.378;2023-07-08T10:06:32;30.80;99.90
28177;DHT22;15461;41.652;9.378;2023-07-08T10:09:09;30.80;99.90
28177;DHT22;15461;41.652;9.378;2023-07-08T10:11:44;31.00;99.90
28177;DHT22;15461;41.652;9.378;2023-07-08T10:16:49;31.30;99.90
28177;DHT22;15461;41.652;9.378;2023-07-08T10:19:19;31.40;99.90
28177;DHT22;15461;41.652;9.378;2023-07-08T10:21:55;31.20;99.90
28177;DHT22;15461;41.652;9.378;2023-07-08T10:26:53;31.10;99.90
28177;DHT22;15461;41.652;9.378;2023-07-08T10:29:27;31.10;99.90
28177;DHT22;15461;41.652;9.378;2023-07-08T10:32:24;31.00;99.90
28177;DHT22;15461;41.652;9.378;2023-07-08T10:35:14;31.10;99.90
28177;DHT22;15461;41.652;9.378;2023-07-08T10:37:52;30.90;99.90
28177;DHT22;15461;41.652;9.378;2023-07-08T10:45:41;30.90;99.90
28177;DHT22;15461;41.652;9.378;2023-07-08T10:48:38;31.00;99.90
28177;DHT22;15461;41.652;9.378;2023-07-08T10:56:37;31.60;99.90
28177;DHT22;15461;41.652;9.378;2023-07-08T11:05:12;31.90;99.90
28177;DHT22;15461;41.652;9.378;2023-07-08T11:07:59;31.90;99.90
28177;DHT22;15461;41.652;9.378;2023-07-08T11:10:38;31.90;99.90
28177;DHT22;15461;41.652;9.378;2023-07-08T11:13:13;31.90;99.90
28177;DHT22;15461;41.652;9.378;2023-07-08T11:21:22;31.60;99.90
28177;DHT22;15461;41.652;9.378;2023-07-08T11:24:11;31.60;99.90
28177;DHT22;15461;41.652;9.378;2023-07-08T11:26:43;31.60;99.90
28177;DHT22;15461;41.652;9.378;2023-07-08T11:29:30;31.60;99.90
28177;DHT22;15461;41.652;9.378;2023-07-08T11:31:58;31.60;99.90
28177;DHT22;15461;41.652;9.378;2023-07-08T11:34:24;31.80;99.90
28177;DHT22;15461;41.652;9.378;2023-07-08T11:36:51;31.80;99.90
28177;DHT22;15461;41.652;9.378;2023-07-08T11:39:47;31.60;99.90
28177;DHT22;15461;41.652;9.378;2023-07-08T11:44:57;31.70;99.90
28177;DHT22;15461;41.652;9.378;2023-07-08T11:49:53;31.60;99.90
28177;DHT22;15461;41.652;9.378;2023-07-08T11:52:20;31.50;99.90
28177;DHT22;15461;41.652;9.378;2023-07-08T11:54:54;31.20;99.90
28177;DHT22;15461;41.652;9.378;2023-07-08T11:57:29;31.20;99.90
28177;DHT22;15461;41.652;9.378;2023-07-08T12:00:17;31.30;99.90
28177;DHT22;15461;41.652;9.378;2023-07-08T12:02:50;31.40;99.90
28177;DHT22;15461;41.652;9.378;2023-07-08T12:05:17;31.40;99.90
28177;DHT22;15461;41.652;9.378;2023-07-08T12:07:55;31.60;99.90
28177;DHT22;15461;41.652;9.378;2023-07-08T12:10:37;31.60;99.90
28177;DHT22;15461;41.652;9.378;2023-07-08T12:13:17;31.50;99.90
28177;DHT22;15461;41.652;9.378;2023-07-08T12:15:43;31.60;99.90
28177;DHT22;15461;41.652;9.378;2023-07-08T12:18:15;31.60;99.90
28177;DHT22;15461;41.652;9.378;2023-07-08T12:20:48;31.30;99.90
28177;DHT22;15461;41.652;9.378;2023-07-08T12:23:19;31.30;99.90
28177;DHT22;15461;41.652;9.378;2023-07-08T12:25:46;31.20;99.90
28177;DHT22;15461;41.652;9.378;2023-07-08T12:28:12;31.30;99.90
28177;DHT22;15461;41.652;9.378;2023-07-08T12:30:39;31.30;99.90
28177;DHT22;15461;41.652;9.378;2023-07-08T12:33:12;31.30;99.90
28177;DHT22;15461;41.652;9.378;2023-07-08T12:35:40;31.10;99.90
28177;DHT22;15461;41.652;9.378;2023-07-08T12:38:26;31.10;99.90
28177;DHT22;15461;41.652;9.378;2023-07-08T12:40:55;31.30;99.90
28177;DHT22;15461;41.652;9.378;2023-07-08T12:43:21;31.50;99.90
28177;DHT22;15461;41.652;9.378;2023-07-08T12:45:47;31.60;99.90
28177;DHT22;15461;41.652;9.378;2023-07-08T12:48:13;31.80;99.90
28177;DHT22;15461;41.652;9.378;2023-07-08T12:50:39;31.70;99.90
28177;DHT22;15461;41.652;9.378;2023-07-08T12:53:05;31.60;99.90
28177;DHT22;15461;41.652;9.378;2023-07-08T12:55:40;31.40;99.90
28177;DHT22;15461;41.652;9.378;2023-07-08T12:58:13;31.40;99.90
28177;DHT22;15461;41.652;9.378;2023-07-08T13:00:39;31.50;99.90
28177;DHT22;15461;41.652;9.378;2023-07-08T13:03:16;31.40;99.90
28177;DHT22;15461;41.652;9.378;2023-07-08T13:05:44;31.30;99.90
28177;DHT22;15461;41.652;9.378;2023-07-08T13:08:19;31.30;99.90
28177;DHT22;15461;41.652;9.378;2023-07-08T13:10:47;31.40;99.90
28177;DHT22;15461;41.652;9.378;2023-07-08T13:13:18;31.30;99.90
28177;DHT22;15461;41.652;9.378;2023-07-08T13:15:45;31.50;99.90
28177;DHT22;15461;41.652;9.378;2023-07-08T13:18:21;31.00;99.90
28177;DHT22;15461;41.652;9.378;2023-07-08T13:20:50;31.10;99.90
28177;DHT22;15461;41.652;9.378;2023-07-08T13:23:17;31.00;99.90
28177;DHT22;15461;41.652;9.378;2023-07-08T13:25:43;30.80;99.90
28177;DHT22;15461;41.652;9.378;2023-07-08T13:30:54;30.80;99.90
28177;DHT22;15461;41.652;9.378;2023-07-08T13:33:20;30.90;99.90
28177;DHT22;15461;41.652;9.378;2023-07-08T13:35:47;31.00;99.90
28177;DHT22;15461;41.652;9.378;2023-07-08T13:38:26;31.00;99.90
28177;DHT22;15461;41.652;9.378;2023-07-08T13:40:59;31.10;99.90
28177;DHT22;15461;41.652;9.378;2023-07-08T13:43:28;31.30;99.90
28177;DHT22;15461;41.652;9.378;2023-07-08T13:45:54;31.30;99.90
28177;DHT22;15461;41.652;9.378;2023-07-08T13:50:55;31.20;99.90
28177;DHT22;15461;41.652;9.378;2023-07-08T13:53:33;31.10;99.90
28177;DHT22;15461;41.652;9.378;2023-07-08T13:58:46;31.10;99.90
28177;DHT22;15461;41.652;9.378;2023-07-08T14:01:23;31.20;99.90
28177;DHT22;15461;41.652;9.378;2023-07-08T14:03:52;31.20;99.90
28177;DHT22;15461;41.652;9.378;2023-07-08T14:06:31;31.20;99.90
28177;DHT22;15461;41.652;9.378;2023-07-08T14:09:00;31.10;99.90
28177;DHT22;15461;41.652;9.378;2023-07-08T14:11:27;31.00;99.90
28177;DHT22;15461;41.652;9.378;2023-07-08T14:13:52;31.00;99.90
28177;DHT22;15461;41.652;9.378;2023-07-08T14:16:25;31.00;99.90
28177;DHT22;15461;41.652;9.378;2023-07-08T14:19:01;31.00;99.90
28177;DHT22;15461;41.652;9.378;2023-07-08T14:21:33;31.10;99.90
28177;DHT22;15461;41.652;9.378;2023-07-08T14:24:00;31.30;99.90
28177;DHT22;15461;41.652;9.378;2023-07-08T14:26:28;31.30;99.90
28177;DHT22;15461;41.652;9.378;2023-07-08T14:28:54;31.20;99.90
28177;DHT22;15461;41.652;9.378;2023-07-08T14:31:22;31.00;99.90
28177;DHT22;15461;41.652;9.378;2023-07-08T14:33:51;31.10;99.90
28177;DHT22;15461;41.652;9.378;2023-07-08T14:36:21;31.00;99.90
28177;DHT22;15461;41.652;9.378;2023-07-08T14:38:46;31.10;99.90
28177;DHT22;15461;41.652;9.378;2023-07-08T14:41:12;31.00;99.90
28177;DHT22;15461;41.652;9.378;2023-07-08T14:43:38;31.00;99.90
28177;DHT22;15461;41.652;9.378;2023-07-08T14:46:05;30.90;99.90
28177;DHT22;15461;41.652;9.378;2023-07-08T14:48:32;30.70;99.90
28177;DHT22;15461;41.652;9.378;2023-07-08T14:50:58;30.50;99.90
28177;DHT22;15461;41.652;9.378;2023-07-08T14:53:24;30.40;99.90
28177;DHT22;15461;41.652;9.378;2023-07-08T14:55:55;30.40;99.90
28177;DHT22;15461;41.652;9.378;2023-07-08T14:58:26;30.40;99.90
28177;DHT22;15461;41.652;9.378;2023-07-08T15:00:56;30.50;99.90
28177;DHT22;15461;41.652;9.378;2023-07-08T15:03:25;30.50;99.90
28177;DHT22;15461;41.652;9.378;2023-07-08T15:05:52;30.40;99.90
28177;DHT22;15461;41.652;9.378;2023-07-08T15:08:18;30.50;99.90
28177;DHT22;15461;41.652;9.378;2023-07-08T15:10:48;30.60;99.90
28177;DHT22;15461;41.652;9.378;2023-07-08T15:13:15;30.60;99.90
28177;DHT22;15461;41.652;9.378;2023-07-08T15:15:43;30.70;99.90
28177;DHT22;15461;41.652;9.378;2023-07-08T15:18:14;30.90;99.90
28177;DHT22;15461;41.652;9.378;2023-07-08T15:20:41;30.90;99.90
28177;DHT22;15461;41.652;9.378;2023-07-08T15:23:08;30.90;99.90
28177;DHT22;15461;41.652;9.378;2023-07-08T15:25:35;30.80;99.90
28177;DHT22;15461;41.652;9.378;2023-07-08T15:28:02;30.90;99.90
28177;DHT22;15461;41.652;9.378;2023-07-08T15:30:30;31.00;99.90
28177;DHT22;15461;41.652;9.378;2023-07-08T15:32:57;30.90;99.90
28177;DHT22;15461;41.652;9.378;2023-07-08T15:35:28;30.90;99.90
28177;DHT22;15461;41.652;9.378;2023-07-08T15:38:00;31.00;99.90
28177;DHT22;15461;41.652;9.378;2023-07-08T15:40:31;30.90;99.90
28177;DHT22;15461;41.652;9.378;2023-07-08T15:43:00;30.90;99.90
28177;DHT22;15461;41.652;9.378;2023-07-08T15:45:30;30.80;99.90
28177;DHT22;15461;41.652;9.378;2023-07-08T15:47:57;30.80;99.90
28177;DHT22;15461;41.652;9.378;2023-07-08T15:50:25;30.80;99.90
28177;DHT22;15461;41.652;9.378;2023-07-08T15:52:52;30.80;99.90
28177;DHT22;15461;41.652;9.378;2023-07-08T15:55:25;30.80;99.90
28177;DHT22;15461;41.652;9.378;2023-07-08T15:58:01;30.80;99.90
28177;DHT22;15461;41.652;9.378;2023-07-08T16:00:29;30.80;99.90
28177;DHT22;15461;41.652;9.378;2023-07-08T16:02:58;30.80;99.90
28177;DHT22;15461;41.652;9.378;2023-07-08T16:05:25;30.60;99.90
28177;DHT22;15461;41.652;9.378;2023-07-08T16:07:52;30.60;99.90
28177;DHT22;15461;41.652;9.378;2023-07-08T16:10:19;30.70;99.90
28177;DHT22;15461;41.652;9.378;2023-07-08T16:12:46;30.60;99.90
28177;DHT22;15461;41.652;9.378;2023-07-08T16:15:17;30.60;99.90
28177;DHT22;15461;41.652;9.378;2023-07-08T16:17:44;30.70;99.90
28177;DHT22;15461;41.652;9.378;2023-07-08T16:20:19;30.60;99.90
28177;DHT22;15461;41.652;9.378;2023-07-08T16:22:46;30.70;99.90
28177;DHT22;15461;41.652;9.378;2023-07-08T16:25:32;30.70;99.90
28177;DHT22;15461;41.652;9.378;2023-07-08T16:28:00;30.70;99.90
28177;DHT22;15461;41.652;9.378;2023-07-08T16:30:27;30.60;99.90
28177;DHT22;15461;41.652;9.378;2023-07-08T16:32:53;30.50;99.90
28177;DHT22;15461;41.652;9.378;2023-07-08T16:35:20;30.60;99.90
28177;DHT22;15461;41.652;9.378;2023-07-08T16:37:48;30.60;99.90
28177;DHT22;15461;41.652;9.378;2023-07-08T16:42:44;30.40;99.90
28177;DHT22;15461;41.652;9.378;2023-07-08T16:45:12;30.30;99.90
28177;DHT22;15461;41.652;9.378;2023-07-08T16:47:38;30.30;99.90
28177;DHT22;15461;41.652;9.378;2023-07-08T16:50:05;30.10;99.90
28177;DHT22;15461;41.652;9.378;2023-07-08T16:52:31;30.10;99.90
28177;DHT22;15461;41.652;9.378;2023-07-08T16:54:58;30.10;99.90